createdAt,value
2023-12-11T00:00:46.099Z,10.00
2023-12-11T00:03:49.279Z,10.40
2023-12-11T00:06:52.203Z,12.57
2023-12-11T00:09:55.460Z,12.50
2023-12-11T00:12:58.858Z,16.35
2023-12-11T00:16:02.255Z,16.87
2023-12-11T00:19:05.536Z,17.98
2023-12-11T00:22:08.494Z,18.58
2023-12-11T00:25:14.914Z,18.52
2023-12-11T00:28:18.664Z,14.82
2023-12-11T00:31:22.167Z,15.15
2023-12-11T00:34:25.279Z,15.73
2023-12-11T00:37:28.754Z,14.27
2023-12-11T00:40:32.178Z,12.95
2023-12-11T00:43:44.627Z,13.70
2023-12-11T00:46:49.276Z,11.87
2023-12-11T00:49:52.306Z,11.88
2023-12-11T00:52:55.552Z,13.90
2023-12-11T00:55:58.553Z,11.75
2023-12-11T00:59:01.641Z,15.10
2023-12-11T01:02:04.852Z,11.23
2023-12-11T01:05:08.484Z,11.18
2023-12-11T01:08:12.433Z,9.47
2023-12-11T01:11:15.298Z,10.18
2023-12-11T01:14:18.188Z,8.18
2023-12-11T01:17:37.708Z,5.83
2023-12-11T01:20:43.811Z,6.40
2023-12-11T01:23:47.033Z,7.53
2023-12-11T01:26:50.088Z,8.93
2023-12-11T01:29:52.989Z,9.18
2023-12-11T01:32:56.247Z,7.55
2023-12-11T01:35:59.754Z,8.43
2023-12-11T01:39:03.103Z,7.43
2023-12-11T01:42:06.309Z,8.75
2023-12-11T01:45:10.048Z,8.15
2023-12-11T01:48:13.913Z,9.00
2023-12-11T01:51:18.416Z,10.43
2023-12-11T01:54:22.017Z,8.90
2023-12-11T01:57:25.053Z,12.77
2023-12-11T02:00:28.410Z,12.93
2023-12-11T02:03:31.410Z,12.02
2023-12-11T02:06:35.498Z,13.85
2023-12-11T02:09:38.456Z,9.90
2023-12-11T02:12:42.746Z,11.13
2023-12-11T02:15:47.619Z,11.82
2023-12-11T02:18:51.176Z,10.50
2023-12-11T02:21:54.820Z,10.35
2023-12-11T02:25:03.737Z,12.30
2023-12-11T02:28:07.030Z,9.55
2023-12-11T02:31:10.346Z,8.90
2023-12-11T02:34:13.454Z,8.93
2023-12-11T02:37:16.435Z,7.95
2023-12-11T02:40:19.710Z,9.50
2023-12-11T02:43:23.108Z,9.77
2023-12-11T02:46:26.505Z,10.25
2023-12-11T02:49:29.902Z,10.27
2023-12-11T02:52:33.191Z,8.38
2023-12-11T02:55:36.402Z,10.45
2023-12-11T02:58:39.831Z,11.00
2023-12-11T03:01:43.148Z,9.30
2023-12-11T03:04:46.546Z,9.23
2023-12-11T03:07:50.090Z,12.02
2023-12-11T03:10:53.365Z,8.13
2023-12-11T03:13:56.367Z,8.38
2023-12-11T03:16:59.516Z,8.30
2023-12-11T03:20:03.057Z,8.13
2023-12-11T03:23:06.209Z,8.48
2023-12-11T03:26:09.555Z,8.02
2023-12-11T03:29:12.814Z,8.38
2023-12-11T03:32:16.320Z,9.40
2023-12-11T03:35:19.411Z,9.32
2023-12-11T03:38:22.570Z,8.10
2023-12-11T03:41:25.482Z,7.63
2023-12-11T03:44:28.813Z,8.35
2023-12-11T03:47:32.405Z,8.82
2023-12-11T03:50:35.525Z,9.63
2023-12-11T03:53:38.519Z,9.27
2023-12-11T03:56:41.675Z,9.85
2023-12-11T03:59:44.570Z,10.60
2023-12-11T04:02:47.831Z,10.50
2023-12-11T04:05:50.717Z,7.22
2023-12-11T04:08:53.720Z,9.73
2023-12-11T04:11:56.670Z,10.27
2023-12-11T04:14:59.605Z,9.88
2023-12-11T04:18:02.605Z,10.32
2023-12-11T04:21:06.344Z,11.27
2023-12-11T04:24:11.889Z,10.05
2023-12-11T04:27:16.230Z,10.70
2023-12-11T04:30:19.484Z,10.82
2023-12-11T04:33:23.121Z,9.30
2023-12-11T04:36:26.172Z,10.20
2023-12-11T04:39:29.335Z,10.13
2023-12-11T04:42:32.536Z,10.07
2023-12-11T04:45:35.788Z,10.88
2023-12-11T04:48:39.165Z,9.98
2023-12-11T04:51:42.466Z,8.83
2023-12-11T04:54:45.702Z,11.75
2023-12-11T04:57:48.697Z,9.80
2023-12-11T05:00:52.036Z,12.77
2023-12-11T05:03:55.355Z,11.68
2023-12-11T05:06:58.674Z,14.57
2023-12-11T05:10:01.674Z,13.05
2023-12-11T05:13:05.092Z,10.33
2023-12-11T05:16:08.773Z,10.73
2023-12-11T05:19:11.981Z,10.20
2023-12-11T05:22:15.400Z,9.70
2023-12-11T05:25:18.817Z,11.60
2023-12-11T05:28:21.994Z,9.93
2023-12-11T05:31:25.203Z,11.43
2023-12-11T05:34:28.429Z,11.07
2023-12-11T05:37:31.981Z,13.23
2023-12-11T05:40:35.149Z,16.95
2023-12-11T05:43:38.362Z,15.20
2023-12-11T05:46:41.561Z,15.35
2023-12-11T05:49:44.956Z,16.30
2023-12-11T05:52:48.091Z,15.53
2023-12-11T05:55:51.426Z,19.88
2023-12-11T05:58:55.864Z,22.55
2023-12-11T06:01:59.153Z,25.27
2023-12-11T06:05:02.372Z,34.28
2023-12-11T06:08:06.214Z,28.30
2023-12-11T06:11:09.442Z,27.20
2023-12-11T06:14:12.700Z,24.33
2023-12-11T06:17:15.870Z,22.80
2023-12-11T06:20:18.830Z,16.02
2023-12-11T06:23:24.942Z,9.90
2023-12-11T06:26:32.902Z,10.35
2023-12-11T06:29:37.100Z,11.23
2023-12-11T06:32:40.476Z,10.40
2023-12-11T06:35:43.949Z,10.13
2023-12-11T06:38:47.509Z,14.65
2023-12-11T06:41:50.890Z,18.60
2023-12-11T06:44:54.827Z,20.77
2023-12-11T06:47:57.719Z,21.58
2023-12-11T06:51:00.674Z,19.60
2023-12-11T06:54:03.982Z,17.40
2023-12-11T06:57:07.408Z,13.95
2023-12-11T07:00:11.709Z,30.52
2023-12-11T07:03:15.011Z,18.65
2023-12-11T07:06:21.181Z,21.52
2023-12-11T07:09:24.249Z,20.75
2023-12-11T07:12:27.558Z,29.90
2023-12-11T07:15:31.243Z,23.33
2023-12-11T07:18:34.946Z,10.98
2023-12-11T07:21:38.086Z,11.60
2023-12-11T07:24:41.193Z,9.33
2023-12-11T07:27:44.839Z,10.65
2023-12-11T07:30:47.870Z,9.50
2023-12-11T07:33:52.371Z,10.55
2023-12-11T07:36:56.686Z,10.85
2023-12-11T07:39:59.707Z,10.32
2023-12-11T07:43:02.714Z,11.57
2023-12-11T07:46:05.812Z,13.20
2023-12-11T07:49:09.322Z,14.07
2023-12-11T07:52:12.746Z,18.10
2023-12-11T07:55:16.344Z,16.17
2023-12-11T07:58:19.825Z,14.43
2023-12-11T08:01:23.185Z,12.70
2023-12-11T08:04:26.562Z,13.05
2023-12-11T08:07:29.954Z,12.38
2023-12-11T08:10:33.681Z,10.50
2023-12-11T08:13:36.606Z,10.00
2023-12-11T08:16:40.175Z,9.33
2023-12-11T08:19:43.539Z,9.05
2023-12-11T08:22:47.106Z,13.30
2023-12-11T08:25:50.297Z,9.13
2023-12-11T08:28:53.863Z,10.23
2023-12-11T08:31:57.477Z,11.18
2023-12-11T08:35:05.243Z,11.55
2023-12-11T08:38:08.693Z,10.98
2023-12-11T08:41:12.008Z,24.27
2023-12-11T08:44:15.391Z,25.60
2023-12-11T08:47:18.469Z,22.60
2023-12-11T08:50:21.566Z,25.95
2023-12-11T08:53:25.287Z,28.60
2023-12-11T08:56:29.171Z,23.97
2023-12-11T08:59:33.680Z,23.63
2023-12-11T09:02:37.287Z,22.02
2023-12-11T09:05:40.759Z,22.73
2023-12-11T09:08:45.108Z,21.83
2023-12-11T09:11:50.069Z,17.05
2023-12-11T09:14:53.567Z,12.38
2023-12-11T09:17:56.990Z,11.33
2023-12-11T09:21:00.293Z,12.20
2023-12-11T09:24:05.254Z,9.32
2023-12-11T09:27:08.772Z,8.90
2023-12-11T09:30:12.092Z,9.55
2023-12-11T09:33:15.359Z,10.63
2023-12-11T09:36:20.709Z,10.02
2023-12-11T09:39:24.048Z,9.80
2023-12-11T09:42:27.915Z,10.75
2023-12-11T09:45:31.763Z,10.77
2023-12-11T09:48:35.619Z,11.97
2023-12-11T09:51:39.748Z,12.55
2023-12-11T09:54:43.772Z,9.93
2023-12-11T09:57:47.932Z,8.73
2023-12-11T10:00:51.436Z,8.60
2023-12-11T10:03:54.571Z,8.30
2023-12-11T10:06:57.551Z,8.68
2023-12-11T10:10:16.864Z,10.98
2023-12-11T10:13:26.852Z,9.35
2023-12-11T10:16:32.688Z,8.20
2023-12-11T10:19:35.905Z,8.70
2023-12-11T10:22:38.999Z,7.53
2023-12-11T10:25:46.282Z,8.13
2023-12-11T10:28:49.152Z,7.53
2023-12-11T10:31:53.584Z,8.15
2023-12-11T10:34:56.962Z,7.20
2023-12-11T10:38:02.013Z,7.88
2023-12-11T10:41:05.170Z,8.68
2023-12-11T10:44:16.919Z,7.72
2023-12-11T10:47:25.281Z,8.65
2023-12-11T10:50:29.136Z,8.43
2023-12-11T10:53:32.110Z,10.20
2023-12-11T10:56:35.363Z,7.35
2023-12-11T10:59:40.139Z,5.97
2023-12-11T11:02:49.686Z,6.90
2023-12-11T11:05:54.055Z,7.63
2023-12-11T11:09:05.373Z,10.00
2023-12-11T11:12:41.241Z,7.20
2023-12-11T11:15:51.560Z,8.68
2023-12-11T11:19:10.437Z,11.00
2023-12-11T11:22:27.352Z,11.50
2023-12-11T11:25:40.649Z,9.03
2023-12-11T11:28:45.717Z,18.70
2023-12-11T11:31:50.904Z,10.57
2023-12-11T11:34:54.369Z,12.63
2023-12-11T11:37:57.299Z,18.30
2023-12-11T11:41:00.898Z,12.20
2023-12-11T11:44:08.806Z,10.20
2023-12-11T11:47:19.282Z,7.78
2023-12-11T11:50:22.669Z,8.50
2023-12-11T11:53:25.985Z,8.85
2023-12-11T11:56:28.985Z,7.23
2023-12-11T11:59:32.049Z,5.00
2023-12-11T12:02:35.269Z,5.20
2023-12-11T12:05:54.151Z,6.13
2023-12-11T12:08:57.144Z,6.33
2023-12-11T12:12:01.464Z,5.63
2023-12-11T12:15:06.330Z,6.57
2023-12-11T12:18:09.964Z,7.85
2023-12-11T12:21:13.273Z,6.67
2023-12-11T12:24:16.461Z,6.10
2023-12-11T12:27:24.253Z,8.80
2023-12-11T12:30:28.885Z,7.90
2023-12-11T12:33:32.233Z,7.87
2023-12-11T12:36:36.645Z,8.18
2023-12-11T12:39:39.766Z,11.00
2023-12-11T12:42:43.274Z,9.27
2023-12-11T12:45:46.282Z,19.13
2023-12-11T12:48:49.615Z,18.80
2023-12-11T12:51:54.287Z,15.02
2023-12-11T12:54:57.287Z,18.90
2023-12-11T12:58:00.689Z,13.70
2023-12-11T13:01:04.892Z,46.28
2023-12-11T13:04:09.480Z,39.47
2023-12-11T13:07:12.724Z,25.02
2023-12-11T13:10:16.182Z,22.13
2023-12-11T13:13:22.806Z,30.93
2023-12-11T13:16:26.313Z,18.75
2023-12-11T13:19:29.538Z,12.55
2023-12-11T13:22:32.694Z,19.73
2023-12-11T13:25:35.968Z,15.15
2023-12-11T13:28:39.228Z,12.50
2023-12-11T13:31:42.613Z,10.02
2023-12-11T13:34:45.600Z,9.83
2023-12-11T13:37:48.687Z,8.63
2023-12-11T13:40:52.052Z,7.72
2023-12-11T13:43:55.303Z,8.23
2023-12-11T13:46:58.267Z,11.63
2023-12-11T13:50:01.517Z,10.73
2023-12-11T13:53:04.910Z,10.57
2023-12-11T13:56:08.153Z,11.73
2023-12-11T13:59:11.078Z,15.30
2023-12-11T14:02:14.669Z,13.75
2023-12-11T14:05:17.805Z,23.10
2023-12-11T14:08:21.095Z,34.03
2023-12-11T14:11:25.840Z,35.80
2023-12-11T14:14:29.312Z,32.07
2023-12-11T14:17:33.501Z,42.72
2023-12-11T14:20:36.729Z,63.92
2023-12-11T14:23:39.982Z,50.13
2023-12-11T14:26:47.344Z,38.88
2023-12-11T14:29:52.300Z,34.70
2023-12-11T14:32:55.270Z,27.98
2023-12-11T14:35:58.270Z,29.53
2023-12-11T14:39:01.902Z,29.75
2023-12-11T14:42:05.216Z,29.55
2023-12-11T14:45:09.060Z,28.17
2023-12-11T14:48:13.558Z,29.00
2023-12-11T14:51:16.512Z,51.95
2023-12-11T14:54:19.375Z,50.75
2023-12-11T14:57:22.417Z,53.45
2023-12-11T15:00:25.527Z,53.47
2023-12-11T15:03:28.789Z,58.72
2023-12-11T15:06:32.937Z,60.57
2023-12-11T15:09:37.933Z,45.33
2023-12-11T15:12:40.854Z,38.28
2023-12-11T15:15:44.382Z,27.43
2023-12-11T15:18:49.081Z,29.27
2023-12-11T15:21:53.095Z,28.17
2023-12-11T15:24:56.075Z,37.83
2023-12-11T15:27:59.051Z,21.55
2023-12-11T15:31:13.012Z,20.75
2023-12-11T15:34:17.739Z,15.43
2023-12-11T15:37:20.720Z,11.57
2023-12-11T15:40:23.950Z,12.18
2023-12-11T15:43:27.359Z,14.40
2023-12-11T15:46:31.679Z,34.93
2023-12-11T15:49:37.539Z,32.72
2023-12-11T15:52:41.513Z,73.53
2023-12-11T15:55:44.693Z,38.67
2023-12-11T15:58:47.878Z,38.13
2023-12-11T16:01:51.155Z,27.98
2023-12-11T16:04:54.670Z,34.75
2023-12-11T16:07:57.970Z,32.17
2023-12-11T16:11:01.285Z,43.78
2023-12-11T16:14:04.167Z,49.30
2023-12-11T16:17:07.854Z,40.53
2023-12-11T16:20:11.099Z,45.95
2023-12-11T16:23:14.361Z,33.88
2023-12-11T16:26:17.653Z,17.50
2023-12-11T16:29:22.398Z,24.35
2023-12-11T16:32:25.285Z,22.92
2023-12-11T16:35:29.529Z,20.15
2023-12-11T16:38:33.771Z,19.13
2023-12-11T16:41:36.786Z,17.83
2023-12-11T16:44:39.632Z,21.55
2023-12-11T16:47:51.059Z,31.73
2023-12-11T16:50:54.326Z,31.77
2023-12-11T16:53:57.497Z,33.10
2023-12-11T16:57:00.552Z,30.60
2023-12-11T17:00:04.377Z,29.67
2023-12-11T17:03:07.716Z,36.83
2023-12-11T17:06:17.797Z,33.83
2023-12-11T17:09:20.980Z,39.93
2023-12-11T17:12:23.966Z,40.47
2023-12-11T17:15:27.087Z,47.85
2023-12-11T17:18:30.407Z,55.97
2023-12-11T17:21:34.432Z,44.20
2023-12-11T17:24:40.390Z,51.05
2023-12-11T17:27:43.407Z,47.15
2023-12-11T17:30:53.292Z,30.15
2023-12-11T17:33:56.594Z,28.38
2023-12-11T17:37:00.033Z,37.83
2023-12-11T17:40:03.724Z,26.50
2023-12-11T17:43:07.410Z,11.48
2023-12-11T17:46:10.344Z,16.98
2023-12-11T17:49:13.733Z,16.40
2023-12-11T17:52:17.183Z,17.92
2023-12-11T17:55:20.222Z,14.40
2023-12-11T17:58:23.289Z,14.15
2023-12-11T18:01:26.479Z,11.55
2023-12-11T18:04:29.482Z,11.80
2023-12-11T18:07:32.825Z,12.95
2023-12-11T18:10:36.510Z,14.40
2023-12-11T18:13:42.264Z,16.17
2023-12-11T18:16:45.153Z,11.07
2023-12-11T18:19:48.315Z,9.40
2023-12-11T18:22:51.638Z,9.23
2023-12-11T18:25:54.732Z,8.95
2023-12-11T18:28:57.674Z,8.23
2023-12-11T18:32:00.856Z,9.32
2023-12-11T18:35:04.938Z,8.05
2023-12-11T18:38:08.375Z,8.77
2023-12-11T18:41:11.399Z,9.83
2023-12-11T18:44:14.723Z,14.88
2023-12-11T18:47:17.925Z,14.25
2023-12-11T18:50:21.228Z,19.27
2023-12-11T18:53:24.863Z,14.25
2023-12-11T18:56:28.429Z,13.20
2023-12-11T18:59:31.382Z,17.80
2023-12-11T19:02:34.669Z,18.33
2023-12-11T19:05:38.045Z,16.00
2023-12-11T19:08:41.115Z,13.02
2023-12-11T19:11:44.072Z,12.67
2023-12-11T19:14:47.877Z,10.65
2023-12-11T19:17:52.504Z,6.28
2023-12-11T19:20:55.915Z,9.27
2023-12-11T19:23:59.805Z,16.30
2023-12-11T19:27:03.278Z,12.52
2023-12-11T19:30:07.122Z,10.02
2023-12-11T19:33:10.769Z,9.02
2023-12-11T19:36:14.286Z,9.30
2023-12-11T19:39:17.773Z,7.68
2023-12-11T19:42:21.223Z,14.93
2023-12-11T19:45:24.666Z,21.95
2023-12-11T19:48:28.218Z,12.50
2023-12-11T19:51:31.360Z,12.13
2023-12-11T19:54:34.651Z,15.25
2023-12-11T19:57:41.345Z,15.85
2023-12-11T20:00:44.759Z,17.02
2023-12-11T20:03:47.831Z,45.38
2023-12-11T20:06:50.987Z,82.60
2023-12-11T20:09:54.109Z,60.03
2023-12-11T20:12:56.983Z,80.63
2023-12-11T20:16:00.514Z,81.22
2023-12-11T20:19:03.802Z,75.18
2023-12-11T20:22:06.930Z,119.23
2023-12-11T20:25:10.211Z,113.75
2023-12-11T20:28:13.811Z,93.93
2023-12-11T20:31:18.210Z,86.97
2023-12-11T20:34:21.554Z,61.90
2023-12-11T20:37:25.417Z,67.63
2023-12-11T20:40:29.676Z,61.40
2023-12-11T20:43:32.954Z,56.23
2023-12-11T20:46:36.832Z,55.78
2023-12-11T20:49:40.325Z,52.03
2023-12-11T20:52:43.395Z,52.33
2023-12-11T20:55:46.792Z,50.92
2023-12-11T20:58:51.194Z,53.53
2023-12-11T21:01:54.218Z,65.00
2023-12-11T21:04:57.558Z,74.57
2023-12-11T21:08:00.580Z,66.30
2023-12-11T21:11:03.568Z,74.70
2023-12-11T21:14:06.866Z,57.73
2023-12-11T21:17:09.801Z,63.70
2023-12-11T21:20:12.936Z,68.70
2023-12-11T21:23:16.260Z,47.57
2023-12-11T21:26:23.198Z,37.63
2023-12-11T21:29:26.527Z,39.75
2023-12-11T21:32:29.741Z,39.35
2023-12-11T21:35:33.183Z,35.33
2023-12-11T21:38:36.416Z,34.50
2023-12-11T21:41:40.081Z,38.47
2023-12-11T21:44:43.373Z,36.30
2023-12-11T21:47:47.391Z,38.30
2023-12-11T21:50:50.580Z,34.88
2023-12-11T21:53:53.878Z,30.27
2023-12-11T21:56:56.738Z,30.80
2023-12-11T21:59:59.826Z,28.95
2023-12-11T22:03:03.150Z,28.25
2023-12-11T22:06:06.780Z,26.90
2023-12-11T22:09:09.678Z,27.50
2023-12-11T22:12:12.789Z,26.08
2023-12-11T22:15:15.689Z,27.03
2023-12-11T22:18:18.938Z,26.85
2023-12-11T22:21:26.679Z,32.72
2023-12-11T22:24:30.361Z,27.23
2023-12-11T22:27:33.507Z,22.33
2023-12-11T22:30:36.605Z,24.52
2023-12-11T22:33:40.058Z,23.27
2023-12-11T22:36:42.969Z,21.40
2023-12-11T22:39:46.417Z,18.38
2023-12-11T22:42:49.582Z,18.27
2023-12-11T22:45:52.546Z,17.43
2023-12-11T22:48:57.553Z,21.27
2023-12-11T22:52:01.720Z,24.75
2023-12-11T22:55:05.513Z,19.27
2023-12-11T22:58:15.670Z,23.20
2023-12-11T23:01:20.319Z,26.92
2023-12-11T23:04:23.457Z,24.45
2023-12-11T23:07:26.836Z,26.85
2023-12-11T23:10:30.067Z,24.95
2023-12-11T23:13:33.301Z,24.15
2023-12-11T23:16:38.249Z,31.33
2023-12-11T23:19:41.771Z,45.60
2023-12-11T23:22:44.838Z,33.70
2023-12-11T23:25:54.632Z,36.70
2023-12-11T23:29:02.069Z,36.42
2023-12-11T23:32:05.322Z,42.75
2023-12-11T23:35:09.020Z,40.33
2023-12-11T23:38:12.372Z,42.95
2023-12-11T23:41:18.055Z,50.55
2023-12-11T23:44:21.643Z,46.22
2023-12-11T23:47:25.034Z,49.30
2023-12-11T23:50:28.063Z,52.30
2023-12-11T23:53:31.357Z,48.75
2023-12-11T23:56:34.322Z,46.53
2023-12-11T23:59:37.577Z,45.22
